La Mesa, Texas
Current Conditions -  °F | °C
As of 12:15 AM on Saturday 25 Oct 2014 (Local Time) from KGNC Reporting Station
Clear Clear  
Wind Chill: 62°   Ceiling: Unl
Heat Index: 62°   Visibility: 10mi
Dew Point: 51°   Wind: 5mph
Humidity: 68%   Direction: 240°WSW
Pressure: 30.18"   Gusts: NA
Location:  32.7457°N, 101.939°W
Report Text: KGNC 250515Z AUTO 24004KT 10SM CLR 17/11 A3018 RMK AO2 T01660106
Loading
Personal Weather Stations






























Interactive Weather Map
Tropical Storm Tracking
New forecast layout! Learn more

10-Day Weather Forecast

Advertisements
Track Severe Weather on mobile